sensor_id;sensor_type;location;lat;lon;timestamp;temperature;humidity
53978;DHT22;39886;47.984;-1.586;2023-05-07T00:01:11;20.80;71.30
53978;DHT22;39886;47.984;-1.586;2023-05-07T00:03:37;20.80;71.30
53978;DHT22;39886;47.984;-1.586;2023-05-07T00:06:03;20.80;71.30
53978;DHT22;39886;47.984;-1.586;2023-05-07T00:08:29;20.90;71.40
53978;DHT22;39886;47.984;-1.586;2023-05-07T00:10:55;20.80;71.30
53978;DHT22;39886;47.984;-1.586;2023-05-07T00:13:21;20.80;71.40
53978;DHT22;39886;47.984;-1.586;2023-05-07T00:15:46;20.80;71.40
53978;DHT22;39886;47.984;-1.586;2023-05-07T00:18:12;20.80;71.40
53978;DHT22;39886;47.984;-1.586;2023-05-07T00:20:38;20.80;71.40
53978;DHT22;39886;47.984;-1.586;2023-05-07T00:23:03;20.80;71.40
53978;DHT22;39886;47.984;-1.586;2023-05-07T00:25:29;20.80;71.40
53978;DHT22;39886;47.984;-1.586;2023-05-07T00:27:55;20.80;71.40
53978;DHT22;39886;47.984;-1.586;2023-05-07T00:30:22;20.80;71.40
53978;DHT22;39886;47.984;-1.586;2023-05-07T00:32:48;20.80;71.40
53978;DHT22;39886;47.984;-1.586;2023-05-07T00:35:16;20.80;71.40
53978;DHT22;39886;47.984;-1.586;2023-05-07T00:37:41;20.80;71.40
53978;DHT22;39886;47.984;-1.586;2023-05-07T00:40:07;20.80;71.40
53978;DHT22;39886;47.984;-1.586;2023-05-07T00:42:33;20.80;71.40
53978;DHT22;39886;47.984;-1.586;2023-05-07T00:44:59;20.80;71.40
53978;DHT22;39886;47.984;-1.586;2023-05-07T00:47:25;20.80;71.50
53978;DHT22;39886;47.984;-1.586;2023-05-07T00:49:51;20.80;71.50
53978;DHT22;39886;47.984;-1.586;2023-05-07T00:52:20;20.80;71.50
53978;DHT22;39886;47.984;-1.586;2023-05-07T00:54:47;20.80;71.50
53978;DHT22;39886;47.984;-1.586;2023-05-07T00:57:13;20.70;72.10
53978;DHT22;39886;47.984;-1.586;2023-05-07T00:59:40;20.70;71.40
53978;DHT22;39886;47.984;-1.586;2023-05-07T01:02:07;20.70;71.50
53978;DHT22;39886;47.984;-1.586;2023-05-07T01:04:33;20.70;71.40
53978;DHT22;39886;47.984;-1.586;2023-05-07T01:06:59;20.70;71.50
53978;DHT22;39886;47.984;-1.586;2023-05-07T01:09:28;20.70;71.40
53978;DHT22;39886;47.984;-1.586;2023-05-07T01:11:55;20.70;71.40
53978;DHT22;39886;47.984;-1.586;2023-05-07T01:14:22;20.70;71.50
53978;DHT22;39886;47.984;-1.586;2023-05-07T01:16:48;20.80;71.50
53978;DHT22;39886;47.984;-1.586;2023-05-07T01:19:18;20.70;71.50
53978;DHT22;39886;47.984;-1.586;2023-05-07T01:21:46;20.70;71.50
53978;DHT22;39886;47.984;-1.586;2023-05-07T01:24:12;20.70;71.50
53978;DHT22;39886;47.984;-1.586;2023-05-07T01:26:39;20.70;71.50
53978;DHT22;39886;47.984;-1.586;2023-05-07T01:29:05;20.70;71.50
53978;DHT22;39886;47.984;-1.586;2023-05-07T01:31:32;20.70;71.50
53978;DHT22;39886;47.984;-1.586;2023-05-07T01:33:59;20.70;71.50
53978;DHT22;39886;47.984;-1.586;2023-05-07T01:36:28;20.70;71.50
53978;DHT22;39886;47.984;-1.586;2023-05-07T01:38:54;20.70;71.50
53978;DHT22;39886;47.984;-1.586;2023-05-07T01:41:23;20.70;72.20
53978;DHT22;39886;47.984;-1.586;2023-05-07T01:43:51;20.70;71.50
53978;DHT22;39886;47.984;-1.586;2023-05-07T01:46:17;20.70;71.50
53978;DHT22;39886;47.984;-1.586;2023-05-07T01:48:45;20.70;71.50
53978;DHT22;39886;47.984;-1.586;2023-05-07T01:51:11;20.70;71.50
53978;DHT22;39886;47.984;-1.586;2023-05-07T01:53:38;20.70;71.50
53978;DHT22;39886;47.984;-1.586;2023-05-07T01:56:05;20.70;71.50
53978;DHT22;39886;47.984;-1.586;2023-05-07T01:58:31;20.70;71.50
53978;DHT22;39886;47.984;-1.586;2023-05-07T02:00:56;20.70;71.60
53978;DHT22;39886;47.984;-1.586;2023-05-07T02:03:22;20.60;71.50
53978;DHT22;39886;47.984;-1.586;2023-05-07T02:05:48;20.60;71.50
53978;DHT22;39886;47.984;-1.586;2023-05-07T02:08:14;20.70;71.50
53978;DHT22;39886;47.984;-1.586;2023-05-07T02:10:40;20.60;71.50
53978;DHT22;39886;47.984;-1.586;2023-05-07T02:13:05;20.60;71.50
53978;DHT22;39886;47.984;-1.586;2023-05-07T02:15:31;20.60;71.50
53978;DHT22;39886;47.984;-1.586;2023-05-07T02:18:00;20.70;71.60
53978;DHT22;39886;47.984;-1.586;2023-05-07T02:20:26;20.60;71.50
53978;DHT22;39886;47.984;-1.586;2023-05-07T02:22:52;20.60;71.50
53978;DHT22;39886;47.984;-1.586;2023-05-07T02:25:18;20.60;71.50
53978;DHT22;39886;47.984;-1.586;2023-05-07T02:27:44;20.60;71.60
53978;DHT22;39886;47.984;-1.586;2023-05-07T02:30:10;20.60;71.50
53978;DHT22;39886;47.984;-1.586;2023-05-07T02:32:36;20.60;71.60
53978;DHT22;39886;47.984;-1.586;2023-05-07T02:35:02;20.60;71.60
53978;DHT22;39886;47.984;-1.586;2023-05-07T02:37:27;20.60;71.60
53978;DHT22;39886;47.984;-1.586;2023-05-07T02:39:53;20.60;71.60
53978;DHT22;39886;47.984;-1.586;2023-05-07T02:42:19;20.60;71.60
53978;DHT22;39886;47.984;-1.586;2023-05-07T02:44:44;20.60;71.60
53978;DHT22;39886;47.984;-1.586;2023-05-07T02:47:10;20.60;71.60
53978;DHT22;39886;47.984;-1.586;2023-05-07T02:49:38;20.60;71.60
53978;DHT22;39886;47.984;-1.586;2023-05-07T02:52:04;20.60;71.70
53978;DHT22;39886;47.984;-1.586;2023-05-07T02:54:30;20.60;71.70
53978;DHT22;39886;47.984;-1.586;2023-05-07T02:56:56;20.50;71.60
53978;DHT22;39886;47.984;-1.586;2023-05-07T02:59:21;20.50;71.60
53978;DHT22;39886;47.984;-1.586;2023-05-07T03:01:47;20.60;71.70
53978;DHT22;39886;47.984;-1.586;2023-05-07T03:04:13;20.50;71.60
53978;DHT22;39886;47.984;-1.586;2023-05-07T03:06:39;20.50;71.60
53978;DHT22;39886;47.984;-1.586;2023-05-07T03:09:05;20.60;71.70
53978;DHT22;39886;47.984;-1.586;2023-05-07T03:11:31;20.50;71.60
53978;DHT22;39886;47.984;-1.586;2023-05-07T03:13:56;20.50;71.60
53978;DHT22;39886;47.984;-1.586;2023-05-07T03:16:22;20.50;71.70
53978;DHT22;39886;47.984;-1.586;2023-05-07T03:18:48;20.50;71.60
53978;DHT22;39886;47.984;-1.586;2023-05-07T03:21:13;20.50;71.60
53978;DHT22;39886;47.984;-1.586;2023-05-07T03:23:39;20.50;71.60
53978;DHT22;39886;47.984;-1.586;2023-05-07T03:26:05;20.50;71.60
53978;DHT22;39886;47.984;-1.586;2023-05-07T03:28:31;20.50;71.70
53978;DHT22;39886;47.984;-1.586;2023-05-07T03:30:56;20.50;71.60
53978;DHT22;39886;47.984;-1.586;2023-05-07T03:33:22;20.50;71.70
53978;DHT22;39886;47.984;-1.586;2023-05-07T03:35:48;20.50;71.70
53978;DHT22;39886;47.984;-1.586;2023-05-07T03:38:14;20.50;71.70
53978;DHT22;39886;47.984;-1.586;2023-05-07T03:40:39;20.50;71.70
53978;DHT22;39886;47.984;-1.586;2023-05-07T03:43:05;20.50;71.70
53978;DHT22;39886;47.984;-1.586;2023-05-07T03:45:31;20.50;71.70
53978;DHT22;39886;47.984;-1.586;2023-05-07T03:47:56;20.50;71.70
53978;DHT22;39886;47.984;-1.586;2023-05-07T03:50:22;20.50;71.70
53978;DHT22;39886;47.984;-1.586;2023-05-07T03:52:48;20.50;71.70
53978;DHT22;39886;47.984;-1.586;2023-05-07T03:55:13;20.50;71.70
53978;DHT22;39886;47.984;-1.586;2023-05-07T03:57:39;20.50;71.70
53978;DHT22;39886;47.984;-1.586;2023-05-07T04:00:05;20.50;71.70
53978;DHT22;39886;47.984;-1.586;2023-05-07T04:02:33;20.50;71.70
53978;DHT22;39886;47.984;-1.586;2023-05-07T04:04:58;20.50;71.70
53978;DHT22;39886;47.984;-1.586;2023-05-07T04:07:24;20.50;71.70
53978;DHT22;39886;47.984;-1.586;2023-05-07T04:09:50;20.50;71.80
53978;DHT22;39886;47.984;-1.586;2023-05-07T04:12:15;20.50;71.80
53978;DHT22;39886;47.984;-1.586;2023-05-07T04:14:41;20.40;71.70
53978;DHT22;39886;47.984;-1.586;2023-05-07T04:17:07;20.50;71.70
53978;DHT22;39886;47.984;-1.586;2023-05-07T04:19:35;20.50;71.80
53978;DHT22;39886;47.984;-1.586;2023-05-07T04:22:00;20.40;71.70
53978;DHT22;39886;47.984;-1.586;2023-05-07T04:24:26;20.40;71.70
53978;DHT22;39886;47.984;-1.586;2023-05-07T04:26:52;20.50;71.80
53978;DHT22;39886;47.984;-1.586;2023-05-07T04:29:18;20.40;71.70
53978;DHT22;39886;47.984;-1.586;2023-05-07T04:31:44;20.50;71.70
53978;DHT22;39886;47.984;-1.586;2023-05-07T04:34:12;20.50;71.70
53978;DHT22;39886;47.984;-1.586;2023-05-07T04:36:39;20.40;71.70
53978;DHT22;39886;47.984;-1.586;2023-05-07T04:39:05;20.50;71.90
53978;DHT22;39886;47.984;-1.586;2023-05-07T04:41:32;20.40;71.90
53978;DHT22;39886;47.984;-1.586;2023-05-07T04:43:58;20.40;71.80
53978;DHT22;39886;47.984;-1.586;2023-05-07T04:46:24;20.50;71.90
53978;DHT22;39886;47.984;-1.586;2023-05-07T04:48:50;20.40;71.90
53978;DHT22;39886;47.984;-1.586;2023-05-07T04:51:16;20.40;71.90
53978;DHT22;39886;47.984;-1.586;2023-05-07T04:53:41;20.40;71.80
53978;DHT22;39886;47.984;-1.586;2023-05-07T04:56:08;20.40;71.80
53978;DHT22;39886;47.984;-1.586;2023-05-07T04:58:34;20.50;71.90
53978;DHT22;39886;47.984;-1.586;2023-05-07T05:01:00;20.40;71.90
53978;DHT22;39886;47.984;-1.586;2023-05-07T05:03:26;20.40;71.80
53978;DHT22;39886;47.984;-1.586;2023-05-07T05:05:52;20.40;71.80
53978;DHT22;39886;47.984;-1.586;2023-05-07T05:08:18;20.40;71.90
53978;DHT22;39886;47.984;-1.586;2023-05-07T05:10:44;20.40;71.90
53978;DHT22;39886;47.984;-1.586;2023-05-07T05:13:10;20.40;71.80
53978;DHT22;39886;47.984;-1.586;2023-05-07T05:15:38;20.40;71.80
53978;DHT22;39886;47.984;-1.586;2023-05-07T05:18:04;20.40;71.80
53978;DHT22;39886;47.984;-1.586;2023-05-07T05:20:30;20.40;71.80
53978;DHT22;39886;47.984;-1.586;2023-05-07T05:22:56;20.40;71.90
53978;DHT22;39886;47.984;-1.586;2023-05-07T05:25:21;20.40;71.80
53978;DHT22;39886;47.984;-1.586;2023-05-07T05:27:47;20.40;71.80
53978;DHT22;39886;47.984;-1.586;2023-05-07T05:30:13;20.40;71.80
53978;DHT22;39886;47.984;-1.586;2023-05-07T05:32:39;20.40;71.90
53978;DHT22;39886;47.984;-1.586;2023-05-07T05:35:05;20.40;71.80
53978;DHT22;39886;47.984;-1.586;2023-05-07T05:37:31;20.40;71.80
53978;DHT22;39886;47.984;-1.586;2023-05-07T05:39:56;20.40;71.80
53978;DHT22;39886;47.984;-1.586;2023-05-07T05:42:23;20.40;71.80
53978;DHT22;39886;47.984;-1.586;2023-05-07T05:44:48;20.40;71.80
53978;DHT22;39886;47.984;-1.586;2023-05-07T05:47:14;20.40;71.70
53978;DHT22;39886;47.984;-1.586;2023-05-07T05:49:40;20.40;71.70
53978;DHT22;39886;47.984;-1.586;2023-05-07T05:52:06;20.40;71.80
53978;DHT22;39886;47.984;-1.586;2023-05-07T05:54:31;20.40;71.80
53978;DHT22;39886;47.984;-1.586;2023-05-07T05:56:57;20.40;71.80
53978;DHT22;39886;47.984;-1.586;2023-05-07T05:59:23;20.40;71.80
53978;DHT22;39886;47.984;-1.586;2023-05-07T06:01:49;20.40;71.80
53978;DHT22;39886;47.984;-1.586;2023-05-07T06:04:14;20.40;71.90
53978;DHT22;39886;47.984;-1.586;2023-05-07T06:06:40;20.40;71.90
53978;DHT22;39886;47.984;-1.586;2023-05-07T06:09:06;20.40;71.80
53978;DHT22;39886;47.984;-1.586;2023-05-07T06:11:32;20.40;71.80
53978;DHT22;39886;47.984;-1.586;2023-05-07T06:13:57;20.40;71.80
53978;DHT22;39886;47.984;-1.586;2023-05-07T06:16:25;20.50;71.80
53978;DHT22;39886;47.984;-1.586;2023-05-07T06:18:50;20.40;71.80
53978;DHT22;39886;47.984;-1.586;2023-05-07T06:21:16;20.50;71.80
53978;DHT22;39886;47.984;-1.586;2023-05-07T06:23:42;20.40;71.70
53978;DHT22;39886;47.984;-1.586;2023-05-07T06:26:08;20.40;71.70
53978;DHT22;39886;47.984;-1.586;2023-05-07T06:28:34;20.50;72.40
53978;DHT22;39886;47.984;-1.586;2023-05-07T06:31:16;20.40;71.60
53978;DHT22;39886;47.984;-1.586;2023-05-07T06:33:43;20.50;71.70
53978;DHT22;39886;47.984;-1.586;2023-05-07T06:36:09;20.50;71.70
53978;DHT22;39886;47.984;-1.586;2023-05-07T06:38:35;20.50;71.70
53978;DHT22;39886;47.984;-1.586;2023-05-07T06:41:01;20.50;71.70
53978;DHT22;39886;47.984;-1.586;2023-05-07T06:43:27;20.50;71.60
53978;DHT22;39886;47.984;-1.586;2023-05-07T06:45:53;20.50;71.60
53978;DHT22;39886;47.984;-1.586;2023-05-07T06:48:18;20.50;71.60
53978;DHT22;39886;47.984;-1.586;2023-05-07T06:50:44;20.50;71.60
53978;DHT22;39886;47.984;-1.586;2023-05-07T06:53:11;20.50;72.20
53978;DHT22;39886;47.984;-1.586;2023-05-07T06:55:36;20.50;71.50
53978;DHT22;39886;47.984;-1.586;2023-05-07T06:58:03;20.50;71.50
53978;DHT22;39886;47.984;-1.586;2023-05-07T07:00:29;20.50;71.50
53978;DHT22;39886;47.984;-1.586;2023-05-07T07:02:56;20.50;71.50
53978;DHT22;39886;47.984;-1.586;2023-05-07T07:05:22;20.60;71.60
53978;DHT22;39886;47.984;-1.586;2023-05-07T07:07:48;20.60;71.50
53978;DHT22;39886;47.984;-1.586;2023-05-07T07:10:21;20.60;71.50
53978;DHT22;39886;47.984;-1.586;2023-05-07T07:12:47;20.60;71.50
53978;DHT22;39886;47.984;-1.586;2023-05-07T07:15:13;20.60;71.50
53978;DHT22;39886;47.984;-1.586;2023-05-07T07:17:40;20.60;71.40
53978;DHT22;39886;47.984;-1.586;2023-05-07T07:20:06;20.60;71.40
53978;DHT22;39886;47.984;-1.586;2023-05-07T07:22:32;20.60;71.40
53978;DHT22;39886;47.984;-1.586;2023-05-07T07:24:58;20.60;71.40
53978;DHT22;39886;47.984;-1.586;2023-05-07T07:27:23;20.60;71.40
53978;DHT22;39886;47.984;-1.586;2023-05-07T07:29:49;20.60;71.40
53978;DHT22;39886;47.984;-1.586;2023-05-07T07:32:15;20.60;71.40
53978;DHT22;39886;47.984;-1.586;2023-05-07T07:34:41;20.70;71.40
53978;DHT22;39886;47.984;-1.586;2023-05-07T07:37:07;20.70;71.40
53978;DHT22;39886;47.984;-1.586;2023-05-07T07:39:33;20.70;71.40
53978;DHT22;39886;47.984;-1.586;2023-05-07T07:41:59;20.70;71.40
53978;DHT22;39886;47.984;-1.586;2023-05-07T07:44:25;20.70;71.40
53978;DHT22;39886;47.984;-1.586;2023-05-07T07:46:52;20.70;71.40
53978;DHT22;39886;47.984;-1.586;2023-05-07T07:49:17;20.70;71.40
53978;DHT22;39886;47.984;-1.586;2023-05-07T07:51:43;20.70;71.40
53978;DHT22;39886;47.984;-1.586;2023-05-07T07:54:09;20.70;71.40
53978;DHT22;39886;47.984;-1.586;2023-05-07T07:56:35;20.70;71.40
53978;DHT22;39886;47.984;-1.586;2023-05-07T07:59:01;20.70;71.40
53978;DHT22;39886;47.984;-1.586;2023-05-07T08:01:27;20.70;71.40
53978;DHT22;39886;47.984;-1.586;2023-05-07T08:03:52;20.70;71.40
53978;DHT22;39886;47.984;-1.586;2023-05-07T08:06:18;20.70;71.40
53978;DHT22;39886;47.984;-1.586;2023-05-07T08:08:44;20.70;71.40
53978;DHT22;39886;47.984;-1.586;2023-05-07T08:11:10;20.70;71.40
53978;DHT22;39886;47.984;-1.586;2023-05-07T08:13:36;20.70;71.40
53978;DHT22;39886;47.984;-1.586;2023-05-07T08:16:04;20.70;71.40
53978;DHT22;39886;47.984;-1.586;2023-05-07T08:18:29;20.70;71.40
53978;DHT22;39886;47.984;-1.586;2023-05-07T08:20:55;20.70;71.40
53978;DHT22;39886;47.984;-1.586;2023-05-07T08:23:21;20.70;71.40
53978;DHT22;39886;47.984;-1.586;2023-05-07T08:25:48;20.70;71.40
53978;DHT22;39886;47.984;-1.586;2023-05-07T08:28:14;20.70;71.40
53978;DHT22;39886;47.984;-1.586;2023-05-07T08:30:40;20.70;71.40
53978;DHT22;39886;47.984;-1.586;2023-05-07T08:33:06;20.70;71.40
53978;DHT22;39886;47.984;-1.586;2023-05-07T08:35:33;20.70;71.40
53978;DHT22;39886;47.984;-1.586;2023-05-07T08:37:59;20.70;71.40
53978;DHT22;39886;47.984;-1.586;2023-05-07T08:40:25;20.70;71.40
53978;DHT22;39886;47.984;-1.586;2023-05-07T08:42:53;20.70;71.40
53978;DHT22;39886;47.984;-1.586;2023-05-07T08:45:20;20.70;71.40
53978;DHT22;39886;47.984;-1.586;2023-05-07T08:47:58;20.70;71.30
53978;DHT22;39886;47.984;-1.586;2023-05-07T08:50:24;20.70;71.30
53978;DHT22;39886;47.984;-1.586;2023-05-07T08:52:50;20.70;71.30
53978;DHT22;39886;47.984;-1.586;2023-05-07T08:55:16;20.80;71.30
53978;DHT22;39886;47.984;-1.586;2023-05-07T08:57:42;20.80;71.30
53978;DHT22;39886;47.984;-1.586;2023-05-07T09:00:09;20.80;71.20
53978;DHT22;39886;47.984;-1.586;2023-05-07T09:02:36;20.80;71.20
53978;DHT22;39886;47.984;-1.586;2023-05-07T09:05:02;20.80;71.10
53978;DHT22;39886;47.984;-1.586;2023-05-07T09:07:28;20.80;71.10
53978;DHT22;39886;47.984;-1.586;2023-05-07T09:09:54;20.80;71.00
53978;DHT22;39886;47.984;-1.586;2023-05-07T09:12:21;20.80;71.00
53978;DHT22;39886;47.984;-1.586;2023-05-07T09:14:47;20.90;71.00
53978;DHT22;39886;47.984;-1.586;2023-05-07T09:17:13;20.90;71.00
53978;DHT22;39886;47.984;-1.586;2023-05-07T09:19:40;20.90;71.00
53978;DHT22;39886;47.984;-1.586;2023-05-07T09:22:06;20.90;71.10
53978;DHT22;39886;47.984;-1.586;2023-05-07T09:24:34;20.90;71.00
53978;DHT22;39886;47.984;-1.586;2023-05-07T09:27:03;20.90;71.00
53978;DHT22;39886;47.984;-1.586;2023-05-07T09:29:30;20.90;70.90
53978;DHT22;39886;47.984;-1.586;2023-05-07T09:32:01;20.90;70.90
53978;DHT22;39886;47.984;-1.586;2023-05-07T09:34:27;20.90;70.80
53978;DHT22;39886;47.984;-1.586;2023-05-07T09:36:53;21.00;70.90
53978;DHT22;39886;47.984;-1.586;2023-05-07T09:39:19;21.00;70.80
53978;DHT22;39886;47.984;-1.586;2023-05-07T09:41:46;21.00;70.80
53978;DHT22;39886;47.984;-1.586;2023-05-07T09:44:14;21.00;70.70
53978;DHT22;39886;47.984;-1.586;2023-05-07T09:46:42;21.00;70.70
53978;DHT22;39886;47.984;-1.586;2023-05-07T09:49:12;21.00;70.70
53978;DHT22;39886;47.984;-1.586;2023-05-07T09:51:50;21.10;70.70
53978;DHT22;39886;47.984;-1.586;2023-05-07T09:54:17;21.00;70.60
53978;DHT22;39886;47.984;-1.586;2023-05-07T09:56:44;21.10;70.60
53978;DHT22;39886;47.984;-1.586;2023-05-07T09:59:14;21.10;70.60
53978;DHT22;39886;47.984;-1.586;2023-05-07T10:01:42;21.10;70.50
53978;DHT22;39886;47.984;-1.586;2023-05-07T10:04:08;21.10;70.50
53978;DHT22;39886;47.984;-1.586;2023-05-07T10:06:35;21.10;70.50
53978;DHT22;39886;47.984;-1.586;2023-05-07T10:09:04;21.10;70.50
53978;DHT22;39886;47.984;-1.586;2023-05-07T10:11:36;21.10;70.50
53978;DHT22;39886;47.984;-1.586;2023-05-07T10:14:03;21.10;70.50
53978;DHT22;39886;47.984;-1.586;2023-05-07T10:16:32;21.10;70.50
53978;DHT22;39886;47.984;-1.586;2023-05-07T10:19:03;21.10;70.50
53978;DHT22;39886;47.984;-1.586;2023-05-07T10:21:30;21.10;70.50
53978;DHT22;39886;47.984;-1.586;2023-05-07T10:26:32;21.10;70.50
53978;DHT22;39886;47.984;-1.586;2023-05-07T10:29:07;21.10;70.50
53978;DHT22;39886;47.984;-1.586;2023-05-07T10:31:55;21.10;70.50
53978;DHT22;39886;47.984;-1.586;2023-05-07T10:34:26;21.10;70.50
53978;DHT22;39886;47.984;-1.586;2023-05-07T10:36:54;21.10;70.50
53978;DHT22;39886;47.984;-1.586;2023-05-07T10:39:21;21.10;70.50
53978;DHT22;39886;47.984;-1.586;2023-05-07T10:41:48;21.10;70.50
53978;DHT22;39886;47.984;-1.586;2023-05-07T10:44:27;21.20;70.50
53978;DHT22;39886;47.984;-1.586;2023-05-07T10:47:09;21.20;70.50
53978;DHT22;39886;47.984;-1.586;2023-05-07T10:52:15;21.20;70.40
53978;DHT22;39886;47.984;-1.586;2023-05-07T10:54:44;21.20;70.40
53978;DHT22;39886;47.984;-1.586;2023-05-07T10:59:57;21.30;70.40
53978;DHT22;39886;47.984;-1.586;2023-05-07T11:02:23;21.30;71.00
53978;DHT22;39886;47.984;-1.586;2023-05-07T11:05:18;21.30;70.30
53978;DHT22;39886;47.984;-1.586;2023-05-07T11:07:54;21.30;70.20
53978;DHT22;39886;47.984;-1.586;2023-05-07T11:10:20;21.30;70.10
53978;DHT22;39886;47.984;-1.586;2023-05-07T11:12:50;21.40;70.10
53978;DHT22;39886;47.984;-1.586;2023-05-07T11:15:36;21.40;70.10
53978;DHT22;39886;47.984;-1.586;2023-05-07T11:18:02;21.40;70.00
53978;DHT22;39886;47.984;-1.586;2023-05-07T11:20:57;21.40;70.00
53978;DHT22;39886;47.984;-1.586;2023-05-07T11:23:54;21.40;69.90
53978;DHT22;39886;47.984;-1.586;2023-05-07T11:26:18;21.40;70.50
53978;DHT22;39886;47.984;-1.586;2023-05-07T11:28:45;21.50;69.90
53978;DHT22;39886;47.984;-1.586;2023-05-07T11:31:11;21.50;69.80
53978;DHT22;39886;47.984;-1.586;2023-05-07T11:33:37;21.50;69.80
53978;DHT22;39886;47.984;-1.586;2023-05-07T11:36:04;21.50;69.70
53978;DHT22;39886;47.984;-1.586;2023-05-07T11:38:34;21.50;69.70
53978;DHT22;39886;47.984;-1.586;2023-05-07T11:41:00;21.60;69.70
53978;DHT22;39886;47.984;-1.586;2023-05-07T11:43:27;21.60;69.70
53978;DHT22;39886;47.984;-1.586;2023-05-07T11:45:53;21.60;69.60
53978;DHT22;39886;47.984;-1.586;2023-05-07T11:48:21;21.50;69.50
53978;DHT22;39886;47.984;-1.586;2023-05-07T11:53:18;21.60;69.50
53978;DHT22;39886;47.984;-1.586;2023-05-07T11:55:44;21.60;69.50
53978;DHT22;39886;47.984;-1.586;2023-05-07T11:58:12;21.60;69.50
53978;DHT22;39886;47.984;-1.586;2023-05-07T12:00:38;21.60;69.50
53978;DHT22;39886;47.984;-1.586;2023-05-07T12:03:06;21.60;69.50
53978;DHT22;39886;47.984;-1.586;2023-05-07T12:05:32;21.60;69.50
53978;DHT22;39886;47.984;-1.586;2023-05-07T12:07:58;21.60;69.40
53978;DHT22;39886;47.984;-1.586;2023-05-07T12:10:23;21.60;69.40
53978;DHT22;39886;47.984;-1.586;2023-05-07T12:12:50;21.60;69.40
53978;DHT22;39886;47.984;-1.586;2023-05-07T12:15:22;21.60;69.40
53978;DHT22;39886;47.984;-1.586;2023-05-07T12:17:48;21.60;69.40
53978;DHT22;39886;47.984;-1.586;2023-05-07T12:20:14;21.70;69.40
53978;DHT22;39886;47.984;-1.586;2023-05-07T12:22:41;21.70;69.40
53978;DHT22;39886;47.984;-1.586;2023-05-07T12:25:07;21.70;69.40
53978;DHT22;39886;47.984;-1.586;2023-05-07T12:27:37;21.70;69.40
53978;DHT22;39886;47.984;-1.586;2023-05-07T12:30:03;21.70;69.30
53978;DHT22;39886;47.984;-1.586;2023-05-07T12:32:29;21.70;69.30
53978;DHT22;39886;47.984;-1.586;2023-05-07T12:34:55;21.70;69.30
53978;DHT22;39886;47.984;-1.586;2023-05-07T12:37:24;21.70;69.20
53978;DHT22;39886;47.984;-1.586;2023-05-07T12:40:13;21.70;69.20
53978;DHT22;39886;47.984;-1.586;2023-05-07T12:42:40;21.70;69.30
53978;DHT22;39886;47.984;-1.586;2023-05-07T12:45:13;21.70;69.20
53978;DHT22;39886;47.984;-1.586;2023-05-07T12:47:44;21.70;69.20
53978;DHT22;39886;47.984;-1.586;2023-05-07T12:50:10;21.70;69.20
53978;DHT22;39886;47.984;-1.586;2023-05-07T12:52:37;21.80;69.20
53978;DHT22;39886;47.984;-1.586;2023-05-07T12:55:08;21.80;69.20
53978;DHT22;39886;47.984;-1.586;2023-05-07T12:57:42;21.80;69.10
53978;DHT22;39886;47.984;-1.586;2023-05-07T13:00:08;21.80;69.00
53978;DHT22;39886;47.984;-1.586;2023-05-07T13:02:37;21.80;68.90
53978;DHT22;39886;47.984;-1.586;2023-05-07T13:05:04;21.90;68.90
53978;DHT22;39886;47.984;-1.586;2023-05-07T13:07:30;21.90;68.90
53978;DHT22;39886;47.984;-1.586;2023-05-07T13:09:55;21.90;68.90
53978;DHT22;39886;47.984;-1.586;2023-05-07T13:12:21;21.90;68.90
53978;DHT22;39886;47.984;-1.586;2023-05-07T13:14:47;21.90;68.90
53978;DHT22;39886;47.984;-1.586;2023-05-07T13:17:13;21.90;68.80
53978;DHT22;39886;47.984;-1.586;2023-05-07T13:19:38;21.90;68.80
53978;DHT22;39886;47.984;-1.586;2023-05-07T13:22:04;21.90;68.80
53978;DHT22;39886;47.984;-1.586;2023-05-07T13:24:30;21.90;68.70
53978;DHT22;39886;47.984;-1.586;2023-05-07T13:26:56;21.90;68.80
53978;DHT22;39886;47.984;-1.586;2023-05-07T13:29:21;21.90;68.80
53978;DHT22;39886;47.984;-1.586;2023-05-07T13:31:57;21.90;68.70
53978;DHT22;39886;47.984;-1.586;2023-05-07T13:34:23;22.00;68.70
53978;DHT22;39886;47.984;-1.586;2023-05-07T13:36:48;22.00;68.70
53978;DHT22;39886;47.984;-1.586;2023-05-07T13:39:14;22.00;68.60
53978;DHT22;39886;47.984;-1.586;2023-05-07T13:41:40;22.00;68.60
53978;DHT22;39886;47.984;-1.586;2023-05-07T13:44:06;22.00;68.60
53978;DHT22;39886;47.984;-1.586;2023-05-07T13:46:32;22.00;68.60
53978;DHT22;39886;47.984;-1.586;2023-05-07T13:48:58;22.00;68.60
53978;DHT22;39886;47.984;-1.586;2023-05-07T13:51:24;22.00;68.60
53978;DHT22;39886;47.984;-1.586;2023-05-07T13:53:50;22.00;68.60
53978;DHT22;39886;47.984;-1.586;2023-05-07T13:56:15;22.00;68.60
53978;DHT22;39886;47.984;-1.586;2023-05-07T13:58:41;22.00;68.50
53978;DHT22;39886;47.984;-1.586;2023-05-07T14:01:07;22.00;68.50
53978;DHT22;39886;47.984;-1.586;2023-05-07T14:03:33;22.00;68.50
53978;DHT22;39886;47.984;-1.586;2023-05-07T14:05:59;22.00;68.50
53978;DHT22;39886;47.984;-1.586;2023-05-07T14:08:27;22.00;69.10
53978;DHT22;39886;47.984;-1.586;2023-05-07T14:10:53;22.10;68.40
53978;DHT22;39886;47.984;-1.586;2023-05-07T14:13:19;22.10;68.40
53978;DHT22;39886;47.984;-1.586;2023-05-07T14:15:45;22.10;68.40
53978;DHT22;39886;47.984;-1.586;2023-05-07T14:18:14;22.10;68.40
53978;DHT22;39886;47.984;-1.586;2023-05-07T14:20:40;22.10;68.40
53978;DHT22;39886;47.984;-1.586;2023-05-07T14:23:08;22.10;68.40
53978;DHT22;39886;47.984;-1.586;2023-05-07T14:25:34;22.10;68.50
53978;DHT22;39886;47.984;-1.586;2023-05-07T14:28:00;22.10;68.50
53978;DHT22;39886;47.984;-1.586;2023-05-07T14:30:25;22.00;68.50
53978;DHT22;39886;47.984;-1.586;2023-05-07T14:32:51;22.00;68.40
53978;DHT22;39886;47.984;-1.586;2023-05-07T14:35:17;22.00;68.50
53978;DHT22;39886;47.984;-1.586;2023-05-07T14:37:43;22.00;68.50
53978;DHT22;39886;47.984;-1.586;2023-05-07T14:40:09;22.00;68.50
53978;DHT22;39886;47.984;-1.586;2023-05-07T14:42:35;22.00;68.50
53978;DHT22;39886;47.984;-1.586;2023-05-07T14:45:01;22.00;68.50
53978;DHT22;39886;47.984;-1.586;2023-05-07T14:47:27;22.00;68.50
53978;DHT22;39886;47.984;-1.586;2023-05-07T14:49:53;22.00;68.50
53978;DHT22;39886;47.984;-1.586;2023-05-07T14:52:20;22.00;68.50
53978;DHT22;39886;47.984;-1.586;2023-05-07T14:54:45;22.00;68.50
53978;DHT22;39886;47.984;-1.586;2023-05-07T14:57:14;22.00;68.50
53978;DHT22;39886;47.984;-1.586;2023-05-07T14:59:42;22.00;68.50
53978;DHT22;39886;47.984;-1.586;2023-05-07T15:02:09;22.00;68.50
53978;DHT22;39886;47.984;-1.586;2023-05-07T15:04:35;22.00;68.40
53978;DHT22;39886;47.984;-1.586;2023-05-07T15:07:01;22.10;68.40
53978;DHT22;39886;47.984;-1.586;2023-05-07T15:09:27;22.10;68.40
53978;DHT22;39886;47.984;-1.586;2023-05-07T15:11:52;22.10;68.40
53978;DHT22;39886;47.984;-1.586;2023-05-07T15:14:18;22.10;68.30
53978;DHT22;39886;47.984;-1.586;2023-05-07T15:16:45;22.10;68.30
53978;DHT22;39886;47.984;-1.586;2023-05-07T15:19:10;22.10;69.00
53978;DHT22;39886;47.984;-1.586;2023-05-07T15:21:36;22.10;68.30
53978;DHT22;39886;47.984;-1.586;2023-05-07T15:24:02;22.10;68.40